sensor_id;sensor_type;location;lat;lon;timestamp;pressure;altitude;pressure_sealevel;temperature;humidity
41250;BME280;26984;59.928;30.306;2022-10-28T00:02:18;101368.94;;;9.82;100.00
41250;BME280;26984;59.928;30.306;2022-10-28T00:04:45;101364.56;;;9.81;100.00
41250;BME280;26984;59.928;30.306;2022-10-28T00:07:12;101366.44;;;9.80;100.00
41250;BME280;26984;59.928;30.306;2022-10-28T00:09:40;101367.63;;;9.78;100.00
41250;BME280;26984;59.928;30.306;2022-10-28T00:12:07;101363.28;;;9.77;100.00
41250;BME280;26984;59.928;30.306;2022-10-28T00:14:35;101359.78;;;9.76;100.00
41250;BME280;26984;59.928;30.306;2022-10-28T00:17:03;101361.44;;;9.77;100.00
41250;BME280;26984;59.928;30.306;2022-10-28T00:19:31;101351.03;;;9.74;100.00
41250;BME280;26984;59.928;30.306;2022-10-28T00:21:58;101359.56;;;9.78;100.00
41250;BME280;26984;59.928;30.306;2022-10-28T00:24:25;101363.94;;;9.79;100.00
41250;BME280;26984;59.928;30.306;2022-10-28T00:26:53;101359.19;;;9.81;100.00
41250;BME280;26984;59.928;30.306;2022-10-28T00:29:20;101356.94;;;9.84;100.00
41250;BME280;26984;59.928;30.306;2022-10-28T00:31:49;101363.41;;;9.90;100.00
41250;BME280;26984;59.928;30.306;2022-10-28T00:34:19;101356.38;;;9.89;100.00
41250;BME280;26984;59.928;30.306;2022-10-28T00:36:47;101358.88;;;9.91;100.00
41250;BME280;26984;59.928;30.306;2022-10-28T00:39:15;101359.91;;;9.90;100.00
41250;BME280;26984;59.928;30.306;2022-10-28T00:41:43;101359.69;;;9.91;100.00
41250;BME280;26984;59.928;30.306;2022-10-28T00:46:57;101354.75;;;9.95;100.00
41250;BME280;26984;59.928;30.306;2022-10-28T00:49:26;101356.41;;;9.96;100.00
41250;BME280;26984;59.928;30.306;2022-10-28T00:51:56;101357.44;;;9.95;100.00
41250;BME280;26984;59.928;30.306;2022-10-28T00:54:26;101362.88;;;10.01;100.00
41250;BME280;26984;59.928;30.306;2022-10-28T00:56:54;101350.91;;;10.04;100.00
41250;BME280;26984;59.928;30.306;2022-10-28T00:59:23;101357.28;;;10.03;100.00
41250;BME280;26984;59.928;30.306;2022-10-28T01:01:52;101357.94;;;10.05;100.00
41250;BME280;26984;59.928;30.306;2022-10-28T01:04:20;101351.72;;;10.04;100.00
41250;BME280;26984;59.928;30.306;2022-10-28T01:06:49;101351.72;;;10.04;100.00
41250;BME280;26984;59.928;30.306;2022-10-28T01:09:17;101356.13;;;10.12;100.00
41250;BME280;26984;59.928;30.306;2022-10-28T01:11:49;101345.75;;;10.09;100.00
41250;BME280;26984;59.928;30.306;2022-10-28T01:22:51;101338.75;;;10.15;100.00
41250;BME280;26984;59.928;30.306;2022-10-28T01:28:16;101328.22;;;10.20;100.00
41250;BME280;26984;59.928;30.306;2022-10-28T01:30:57;101332.38;;;10.22;100.00
41250;BME280;26984;59.928;30.306;2022-10-28T01:33:28;101326.19;;;10.22;100.00
41250;BME280;26984;59.928;30.306;2022-10-28T01:36:00;101328.88;;;10.22;100.00
41250;BME280;26984;59.928;30.306;2022-10-28T01:38:31;101323.50;;;10.22;100.00
41250;BME280;26984;59.928;30.306;2022-10-28T01:41:03;101321.38;;;10.17;100.00
41250;BME280;26984;59.928;30.306;2022-10-28T01:43:33;101314.97;;;10.18;100.00
41250;BME280;26984;59.928;30.306;2022-10-28T01:46:07;101316.63;;;10.19;100.00
41250;BME280;26984;59.928;30.306;2022-10-28T01:48:40;101326.19;;;10.22;100.00
41250;BME280;26984;59.928;30.306;2022-10-28T01:51:10;101314.16;;;10.24;100.00
41250;BME280;26984;59.928;30.306;2022-10-28T01:53:40;101326.44;;;10.27;100.00
41250;BME280;26984;59.928;30.306;2022-10-28T01:56:12;101326.25;;;10.28;100.00
41250;BME280;26984;59.928;30.306;2022-10-28T01:58:41;101319.84;;;10.29;100.00
41250;BME280;26984;59.928;30.306;2022-10-28T02:01:11;101319.19;;;10.27;100.00
41250;BME280;26984;59.928;30.306;2022-10-28T02:03:39;101316.94;;;10.31;100.00
41250;BME280;26984;59.928;30.306;2022-10-28T02:06:07;101319.22;;;10.34;100.00
41250;BME280;26984;59.928;30.306;2022-10-28T02:11:35;101309.09;;;10.36;100.00
41250;BME280;26984;59.928;30.306;2022-10-28T02:14:11;101308.47;;;10.34;100.00
41250;BME280;26984;59.928;30.306;2022-10-28T02:16:47;101311.41;;;10.39;100.00
41250;BME280;26984;59.928;30.306;2022-10-28T02:19:16;101300.63;;;10.39;100.00
41250;BME280;26984;59.928;30.306;2022-10-28T02:21:46;101299.59;;;10.40;100.00
41250;BME280;26984;59.928;30.306;2022-10-28T02:24:16;101304.59;;;10.43;100.00
41250;BME280;26984;59.928;30.306;2022-10-28T02:26:46;101304.16;;;10.40;100.00
41250;BME280;26984;59.928;30.306;2022-10-28T02:29:19;101302.72;;;10.44;100.00
41250;BME280;26984;59.928;30.306;2022-10-28T02:31:51;101307.91;;;10.45;100.00
41250;BME280;26984;59.928;30.306;2022-10-28T02:34:20;101309.38;;;10.48;100.00
41250;BME280;26984;59.928;30.306;2022-10-28T02:36:50;101304.38;;;10.45;100.00
41250;BME280;26984;59.928;30.306;2022-10-28T02:39:19;101310.97;;;10.42;100.00
41250;BME280;26984;59.928;30.306;2022-10-28T02:41:49;101307.06;;;10.45;100.00
41250;BME280;26984;59.928;30.306;2022-10-28T02:44:19;101313.28;;;10.45;100.00
41250;BME280;26984;59.928;30.306;2022-10-28T02:46:51;101315.16;;;10.45;100.00
41250;BME280;26984;59.928;30.306;2022-10-28T02:49:20;101307.72;;;10.47;100.00
41250;BME280;26984;59.928;30.306;2022-10-28T02:51:50;101311.22;;;10.47;100.00
41250;BME280;26984;59.928;30.306;2022-10-28T02:54:19;101315.78;;;10.47;100.00
41250;BME280;26984;59.928;30.306;2022-10-28T02:56:50;101311.66;;;10.51;100.00
41250;BME280;26984;59.928;30.306;2022-10-28T02:59:18;101317.28;;;10.49;100.00
41250;BME280;26984;59.928;30.306;2022-10-28T03:01:46;101300.66;;;10.46;100.00
41250;BME280;26984;59.928;30.306;2022-10-28T03:04:14;101304.41;;;10.51;100.00
41250;BME280;26984;59.928;30.306;2022-10-28T03:06:42;101301.72;;;10.51;100.00
41250;BME280;26984;59.928;30.306;2022-10-28T03:09:09;101307.09;;;10.51;100.00
41250;BME280;26984;59.928;30.306;2022-10-28T03:11:36;101305.66;;;10.55;100.00
41250;BME280;26984;59.928;30.306;2022-10-28T03:14:04;101304.84;;;10.55;100.00
41250;BME280;26984;59.928;30.306;2022-10-28T03:16:31;101303.81;;;10.56;100.00
41250;BME280;26984;59.928;30.306;2022-10-28T03:18:58;101307.97;;;10.59;100.00
41250;BME280;26984;59.928;30.306;2022-10-28T03:21:27;101304.06;;;10.61;100.00
41250;BME280;26984;59.928;30.306;2022-10-28T03:23:54;101304.88;;;10.62;100.00
41250;BME280;26984;59.928;30.306;2022-10-28T03:26:22;101300.53;;;10.61;100.00
41250;BME280;26984;59.928;30.306;2022-10-28T03:28:49;101303.84;;;10.63;100.00
41250;BME280;26984;59.928;30.306;2022-10-28T03:31:16;101300.53;;;10.61;100.00
41250;BME280;26984;59.928;30.306;2022-10-28T03:33:44;101300.28;;;10.55;100.00
41250;BME280;26984;59.928;30.306;2022-10-28T03:36:11;101304.66;;;10.57;100.00
41250;BME280;26984;59.928;30.306;2022-10-28T03:38:40;101294.28;;;10.53;100.00
41250;BME280;26984;59.928;30.306;2022-10-28T03:41:07;101293.88;;;10.57;100.00
41250;BME280;26984;59.928;30.306;2022-10-28T03:43:34;101296.16;;;10.60;100.00
41250;BME280;26984;59.928;30.306;2022-10-28T03:46:02;101297.84;;;10.61;100.00
41250;BME280;26984;59.928;30.306;2022-10-28T03:48:29;101295.31;;;10.59;100.00
41250;BME280;26984;59.928;30.306;2022-10-28T03:50:56;101291.41;;;10.62;100.00
41250;BME280;26984;59.928;30.306;2022-10-28T03:53:24;101290.97;;;10.58;100.00
41250;BME280;26984;59.928;30.306;2022-10-28T03:55:53;101287.06;;;10.61;100.00
41250;BME280;26984;59.928;30.306;2022-10-28T03:58:21;101283.16;;;10.70;100.00
41250;BME280;26984;59.928;30.306;2022-10-28T04:00:48;101286.66;;;10.70;100.00
41250;BME280;26984;59.928;30.306;2022-10-28T04:03:16;101282.75;;;10.73;100.00
41250;BME280;26984;59.928;30.306;2022-10-28T04:05:43;101276.31;;;10.74;100.00
41250;BME280;26984;59.928;30.306;2022-10-28T04:08:13;101270.75;;;10.75;100.00
41250;BME280;26984;59.928;30.306;2022-10-28T04:10:41;101273.47;;;10.82;100.00
41250;BME280;26984;59.928;30.306;2022-10-28T04:13:10;101269.72;;;10.83;100.00
41250;BME280;26984;59.928;30.306;2022-10-28T04:15:38;101268.50;;;10.86;100.00
41250;BME280;26984;59.928;30.306;2022-10-28T04:18:05;101266.81;;;10.85;100.00
41250;BME280;26984;59.928;30.306;2022-10-28T04:20:33;101257.09;;;10.90;100.00
41250;BME280;26984;59.928;30.306;2022-10-28T04:23:00;101258.97;;;10.90;100.00
41250;BME280;26984;59.928;30.306;2022-10-28T04:25:28;101255.22;;;10.91;100.00
41250;BME280;26984;59.928;30.306;2022-10-28T04:27:55;101245.09;;;10.93;100.00
41250;BME280;26984;59.928;30.306;2022-10-28T04:30:24;101252.34;;;10.92;100.00
41250;BME280;26984;59.928;30.306;2022-10-28T04:32:51;101240.72;;;10.92;100.00
41250;BME280;26984;59.928;30.306;2022-10-28T04:35:19;101242.81;;;10.96;100.00
41250;BME280;26984;59.928;30.306;2022-10-28T04:37:46;101246.13;;;10.98;100.00
41250;BME280;26984;59.928;30.306;2022-10-28T04:40:14;101237.81;;;10.93;100.00
41250;BME280;26984;59.928;30.306;2022-10-28T04:42:41;101237.88;;;11.07;100.00
41250;BME280;26984;59.928;30.306;2022-10-28T04:45:09;101238.47;;;11.09;100.00
41250;BME280;26984;59.928;30.306;2022-10-28T04:47:38;101234.94;;;11.01;100.00
41250;BME280;26984;59.928;30.306;2022-10-28T04:50:05;101242.19;;;11.01;100.00
41250;BME280;26984;59.928;30.306;2022-10-28T04:52:39;101234.31;;;10.99;100.00
41250;BME280;26984;59.928;30.306;2022-10-28T04:55:07;101229.94;;;10.98;100.00
41250;BME280;26984;59.928;30.306;2022-10-28T04:57:35;101233.69;;;11.04;100.00
41250;BME280;26984;59.928;30.306;2022-10-28T05:00:02;101238.66;;;11.00;100.00
41250;BME280;26984;59.928;30.306;2022-10-28T05:02:30;101238.88;;;11.06;100.00
41250;BME280;26984;59.928;30.306;2022-10-28T05:04:59;101242.41;;;11.06;100.00
41250;BME280;26984;59.928;30.306;2022-10-28T05:07:28;101250.91;;;11.03;100.00
41250;BME280;26984;59.928;30.306;2022-10-28T05:09:55;101246.34;;;11.03;100.00
41250;BME280;26984;59.928;30.306;2022-10-28T05:12:23;101240.13;;;11.03;100.00
41250;BME280;26984;59.928;30.306;2022-10-28T05:14:50;101245.31;;;11.05;100.00
41250;BME280;26984;59.928;30.306;2022-10-28T05:17:18;101243.25;;;11.07;100.00
41250;BME280;26984;59.928;30.306;2022-10-28T05:19:45;101245.72;;;11.01;100.00
41250;BME280;26984;59.928;30.306;2022-10-28T05:22:14;101242.19;;;11.01;100.00
41250;BME280;26984;59.928;30.306;2022-10-28T05:24:41;101234.75;;;11.03;100.00
41250;BME280;26984;59.928;30.306;2022-10-28T05:27:09;101234.09;;;11.01;100.00
41250;BME280;26984;59.928;30.306;2022-10-28T05:29:37;101235.16;;;11.00;100.00
41250;BME280;26984;59.928;30.306;2022-10-28T05:32:04;101228.94;;;10.99;100.00
41250;BME280;26984;59.928;30.306;2022-10-28T05:34:31;101233.47;;;10.99;100.00
41250;BME280;26984;59.928;30.306;2022-10-28T05:36:59;101246.53;;;10.95;100.00
41250;BME280;26984;59.928;30.306;2022-10-28T05:39:28;101247.81;;;10.99;100.00
41250;BME280;26984;59.928;30.306;2022-10-28T05:41:55;101235.97;;;10.94;100.00
41250;BME280;26984;59.928;30.306;2022-10-28T05:44:22;101229.34;;;10.96;100.00
41250;BME280;26984;59.928;30.306;2022-10-28T05:46:50;101233.25;;;10.94;100.00
41250;BME280;26984;59.928;30.306;2022-10-28T05:49:19;101228.50;;;10.96;100.00
41250;BME280;26984;59.928;30.306;2022-10-28T05:51:46;101221.44;;;10.95;100.00
41250;BME280;26984;59.928;30.306;2022-10-28T05:54:14;101216.69;;;10.97;100.00
41250;BME280;26984;59.928;30.306;2022-10-28T05:56:42;101232.63;;;10.98;100.00
41250;BME280;26984;59.928;30.306;2022-10-28T05:59:10;101228.50;;;10.96;100.00
41250;BME280;26984;59.928;30.306;2022-10-28T06:01:37;101231.81;;;10.98;100.00
41250;BME280;26984;59.928;30.306;2022-10-28T06:04:05;101228.72;;;11.01;100.00
41250;BME280;26984;59.928;30.306;2022-10-28T06:06:32;101227.88;;;11.00;100.00
41250;BME280;26984;59.928;30.306;2022-10-28T06:08:59;101223.94;;;10.96;100.00
41250;BME280;26984;59.928;30.306;2022-10-28T06:11:27;101223.72;;;10.98;100.00
41250;BME280;26984;59.928;30.306;2022-10-28T06:13:56;101229.75;;;11.00;100.00
41250;BME280;26984;59.928;30.306;2022-10-28T06:16:23;101224.16;;;11.01;100.00
41250;BME280;26984;59.928;30.306;2022-10-28T06:18:51;101232.22;;;11.01;100.00
41250;BME280;26984;59.928;30.306;2022-10-28T06:21:18;101234.53;;;11.05;100.00
41250;BME280;26984;59.928;30.306;2022-10-28T06:23:46;101239.28;;;11.02;100.00
41250;BME280;26984;59.928;30.306;2022-10-28T06:26:14;101234.31;;;11.06;100.00
41250;BME280;26984;59.928;30.306;2022-10-28T06:28:41;101230.38;;;11.02;100.00
41250;BME280;26984;59.928;30.306;2022-10-28T06:31:10;101240.75;;;11.05;100.00
41250;BME280;26984;59.928;30.306;2022-10-28T06:33:38;101238.28;;;11.03;100.00
41250;BME280;26984;59.928;30.306;2022-10-28T06:36:05;101246.34;;;11.03;100.00
41250;BME280;26984;59.928;30.306;2022-10-28T06:38:33;101246.34;;;11.03;100.00
41250;BME280;26984;59.928;30.306;2022-10-28T06:41:00;101241.78;;;11.04;100.00
41250;BME280;26984;59.928;30.306;2022-10-28T06:43:28;101249.66;;;11.06;100.00
41250;BME280;26984;59.928;30.306;2022-10-28T06:45:55;101242.22;;;11.08;100.00
41250;BME280;26984;59.928;30.306;2022-10-28T06:48:24;101249.66;;;11.06;100.00
41250;BME280;26984;59.928;30.306;2022-10-28T06:50:53;101236.41;;;11.04;100.00
41250;BME280;26984;59.928;30.306;2022-10-28T06:53:20;101258.16;;;11.09;100.00
41250;BME280;26984;59.928;30.306;2022-10-28T06:55:50;101250.91;;;11.10;100.00
41250;BME280;26984;59.928;30.306;2022-10-28T06:58:18;101234.94;;;11.01;100.00
41250;BME280;26984;59.928;30.306;2022-10-28T07:00:46;101243.44;;;11.05;100.00
41250;BME280;26984;59.928;30.306;2022-10-28T07:03:13;101238.28;;;11.03;100.00
41250;BME280;26984;59.928;30.306;2022-10-28T07:05:42;101249.66;;;11.06;100.00
41250;BME280;26984;59.928;30.306;2022-10-28T07:08:09;101254.03;;;11.07;100.00
41250;BME280;26984;59.928;30.306;2022-10-28T07:10:37;101247.59;;;11.01;100.00
41250;BME280;26984;59.928;30.306;2022-10-28T07:13:04;101247.16;;;10.97;100.00
41250;BME280;26984;59.928;30.306;2022-10-28T07:15:32;101243.25;;;11.00;100.00
41250;BME280;26984;59.928;30.306;2022-10-28T07:18:00;101252.16;;;11.00;100.00
41250;BME280;26984;59.928;30.306;2022-10-28T07:20:27;101254.03;;;11.00;100.00
41250;BME280;26984;59.928;30.306;2022-10-28T07:22:59;101250.72;;;11.05;100.00
41250;BME280;26984;59.928;30.306;2022-10-28T07:25:28;101248.22;;;11.10;100.00
41250;BME280;26984;59.928;30.306;2022-10-28T07:27:56;101251.97;;;11.15;100.00
41250;BME280;26984;59.928;30.306;2022-10-28T07:30:23;101252.59;;;11.17;100.00
41250;BME280;26984;59.928;30.306;2022-10-28T07:32:51;101258.41;;;11.21;100.00
41250;BME280;26984;59.928;30.306;2022-10-28T07:35:18;101261.53;;;11.24;100.00
41250;BME280;26984;59.928;30.306;2022-10-28T07:37:46;101256.56;;;11.28;100.00
41250;BME280;26984;59.928;30.306;2022-10-28T07:40:15;101259.69;;;11.32;100.00
41250;BME280;26984;59.928;30.306;2022-10-28T07:42:42;101262.56;;;11.30;100.00
41250;BME280;26984;59.928;30.306;2022-10-28T07:45:10;101262.38;;;11.32;100.00
41250;BME280;26984;59.928;30.306;2022-10-28T07:47:37;101261.09;;;11.27;100.00
41250;BME280;26984;59.928;30.306;2022-10-28T07:50:05;101263.59;;;11.29;100.00
41250;BME280;26984;59.928;30.306;2022-10-28T07:52:33;101260.28;;;11.27;100.00
41250;BME280;26984;59.928;30.306;2022-10-28T07:55:01;101255.13;;;11.32;100.00
41250;BME280;26984;59.928;30.306;2022-10-28T07:57:30;101261.34;;;11.33;100.00
41250;BME280;26984;59.928;30.306;2022-10-28T07:59:57;101259.69;;;11.32;100.00
41250;BME280;26984;59.928;30.306;2022-10-28T08:02:25;101261.97;;;11.28;100.00
41250;BME280;26984;59.928;30.306;2022-10-28T08:04:53;101267.97;;;11.30;100.00
41250;BME280;26984;59.928;30.306;2022-10-28T08:07:21;101268.19;;;11.29;100.00
41250;BME280;26984;59.928;30.306;2022-10-28T08:09:50;101268.19;;;11.29;100.00
41250;BME280;26984;59.928;30.306;2022-10-28T08:12:18;101266.09;;;11.31;100.00
41250;BME280;26984;59.928;30.306;2022-10-28T08:14:47;101266.72;;;11.33;100.00
41250;BME280;26984;59.928;30.306;2022-10-28T08:17:14;101266.31;;;11.29;100.00
41250;BME280;26984;59.928;30.306;2022-10-28T08:19:42;101265.66;;;11.27;100.00
41250;BME280;26984;59.928;30.306;2022-10-28T08:22:09;101270.66;;;11.30;100.00
41250;BME280;26984;59.928;30.306;2022-10-28T08:24:37;101270.03;;;11.35;100.00
41250;BME280;26984;59.928;30.306;2022-10-28T08:27:04;101269.44;;;11.39;100.00
41250;BME280;26984;59.928;30.306;2022-10-28T08:29:32;101264.22;;;11.38;100.00
41250;BME280;26984;59.928;30.306;2022-10-28T08:32:01;101263.00;;;11.40;100.00
41250;BME280;26984;59.928;30.306;2022-10-28T08:34:28;101265.28;;;11.37;100.00
41250;BME280;26984;59.928;30.306;2022-10-28T08:36:56;101268.38;;;11.34;100.00
41250;BME280;26984;59.928;30.306;2022-10-28T08:39:23;101263.41;;;11.37;100.00
41250;BME280;26984;59.928;30.306;2022-10-28T08:41:52;101263.63;;;11.36;100.00
41250;BME280;26984;59.928;30.306;2022-10-28T08:47:21;101256.97;;;11.38;100.00
41250;BME280;26984;59.928;30.306;2022-10-28T08:49:51;101258.41;;;11.34;100.00
41250;BME280;26984;59.928;30.306;2022-10-28T08:52:23;101255.53;;;11.36;100.00
41250;BME280;26984;59.928;30.306;2022-10-28T08:54:54;101245.97;;;11.40;100.00
41250;BME280;26984;59.928;30.306;2022-10-28T08:57:25;101244.94;;;11.47;100.00
41250;BME280;26984;59.928;30.306;2022-10-28T08:59:56;101247.00;;;11.52;100.00
41250;BME280;26984;59.928;30.306;2022-10-28T09:02:27;101252.41;;;11.59;100.00
41250;BME280;26984;59.928;30.306;2022-10-28T09:04:58;101246.81;;;11.60;100.00
41250;BME280;26984;59.928;30.306;2022-10-28T09:07:36;101249.09;;;11.57;100.00
41250;BME280;26984;59.928;30.306;2022-10-28T09:10:04;101251.16;;;11.61;100.00
41250;BME280;26984;59.928;30.306;2022-10-28T09:12:33;101244.72;;;11.62;100.00
41250;BME280;26984;59.928;30.306;2022-10-28T09:15:19;101241.84;;;11.64;100.00
41250;BME280;26984;59.928;30.306;2022-10-28T09:17:54;101240.78;;;11.65;100.00
41250;BME280;26984;59.928;30.306;2022-10-28T09:20:25;101246.19;;;11.71;100.00
41250;BME280;26984;59.928;30.306;2022-10-28T09:22:55;101250.97;;;11.69;100.00
41250;BME280;26984;59.928;30.306;2022-10-28T09:25:25;101244.53;;;11.64;100.00
41250;BME280;26984;59.928;30.306;2022-10-28T09:27:58;101234.16;;;11.61;100.00
41250;BME280;26984;59.928;30.306;2022-10-28T09:30:29;101233.34;;;11.67;100.00
41250;BME280;26984;59.928;30.306;2022-10-28T09:33:03;101223.56;;;11.66;100.00
41250;BME280;26984;59.928;30.306;2022-10-28T09:35:35;101226.25;;;11.72;100.00
41250;BME280;26984;59.928;30.306;2022-10-28T09:38:06;101234.97;;;11.74;100.00
41250;BME280;26984;59.928;30.306;2022-10-28T09:40:39;101229.78;;;11.73;100.00
41250;BME280;26984;59.928;30.306;2022-10-28T09:43:09;101227.91;;;11.73;100.00
41250;BME280;26984;59.928;30.306;2022-10-28T09:45:41;101223.97;;;11.76;100.00
41250;BME280;26984;59.928;30.306;2022-10-28T09:48:13;101224.78;;;11.70;100.00
41250;BME280;26984;59.928;30.306;2022-10-28T09:50:43;101229.59;;;11.68;100.00
41250;BME280;26984;59.928;30.306;2022-10-28T09:53:11;101222.72;;;11.65;100.00
41250;BME280;26984;59.928;30.306;2022-10-28T09:55:42;101225.00;;;11.62;100.00
41250;BME280;26984;59.928;30.306;2022-10-28T09:58:09;101226.88;;;11.68;100.00
41250;BME280;26984;59.928;30.306;2022-10-28T10:00:38;101225.19;;;11.73;100.00
41250;BME280;26984;59.928;30.306;2022-10-28T10:03:06;101230.00;;;11.71;100.00
41250;BME280;26984;59.928;30.306;2022-10-28T10:05:36;101216.09;;;11.61;100.00
41250;BME280;26984;59.928;30.306;2022-10-28T10:08:06;101219.19;;;11.51;100.00
41250;BME280;26984;59.928;30.306;2022-10-28T10:10:38;101215.50;;;11.46;100.00
41250;BME280;26984;59.928;30.306;2022-10-28T10:13:09;101215.69;;;11.44;100.00
41250;BME280;26984;59.928;30.306;2022-10-28T10:15:38;101216.06;;;11.35;100.00
41250;BME280;26984;59.928;30.306;2022-10-28T10:18:11;101208.00;;;11.28;100.00
41250;BME280;26984;59.928;30.306;2022-10-28T10:20:47;101208.41;;;11.18;100.00
41250;BME280;26984;59.928;30.306;2022-10-28T10:23:22;101207.56;;;11.11;100.00
41250;BME280;26984;59.928;30.306;2022-10-28T10:25:53;101204.66;;;11.06;100.00
41250;BME280;26984;59.928;30.306;2022-10-28T10:28:21;101200.53;;;11.03;100.00
41250;BME280;26984;59.928;30.306;2022-10-28T10:30:49;101200.09;;;11.00;100.00
41250;BME280;26984;59.928;30.306;2022-10-28T10:33:18;101192.41;;;10.97;100.00
41250;BME280;26984;59.928;30.306;2022-10-28T10:35:52;101194.72;;;11.07;100.00
41250;BME280;26984;59.928;30.306;2022-10-28T10:38:21;101198.66;;;11.04;100.00
41250;BME280;26984;59.928;30.306;2022-10-28T10:40:50;101200.94;;;11.00;100.00
41250;BME280;26984;59.928;30.306;2022-10-28T10:43:21;101195.53;;;11.07;100.00
41250;BME280;26984;59.928;30.306;2022-10-28T10:45:51;101207.16;;;11.08;100.00
41250;BME280;26984;59.928;30.306;2022-10-28T10:48:19;101202.16;;;11.05;100.00
41250;BME280;26984;59.928;30.306;2022-10-28T10:50:46;101200.72;;;11.02;100.00
41250;BME280;26984;59.928;30.306;2022-10-28T10:53:17;101199.47;;;10.98;100.00
41250;BME280;26984;59.928;30.306;2022-10-28T10:55:47;101202.56;;;10.95;100.00
41250;BME280;26984;59.928;30.306;2022-10-28T10:58:17;101202.38;;;10.96;100.00
41250;BME280;26984;59.928;30.306;2022-10-28T11:00:46;101199.03;;;10.94;100.00
41250;BME280;26984;59.928;30.306;2022-10-28T11:03:16;101191.34;;;10.91;100.00
41250;BME280;26984;59.928;30.306;2022-10-28T11:05:48;101200.69;;;10.95;100.00
41250;BME280;26984;59.928;30.306;2022-10-28T11:08:25;101200.28;;;10.98;100.00
41250;BME280;26984;59.928;30.306;2022-10-28T11:13:39;101198.22;;;11.00;100.00
41250;BME280;26984;59.928;30.306;2022-10-28T11:16:15;101197.59;;;10.98;100.00
41250;BME280;26984;59.928;30.306;2022-10-28T11:18:44;101197.59;;;11.05;100.00
41250;BME280;26984;59.928;30.306;2022-10-28T11:21:15;101193.69;;;11.08;100.00
41250;BME280;26984;59.928;30.306;2022-10-28T11:23:51;101193.88;;;11.13;100.00
41250;BME280;26984;59.928;30.306;2022-10-28T11:26:23;101194.09;;;11.18;100.00
41250;BME280;26984;59.928;30.306;2022-10-28T11:28:55;101192.63;;;11.15;100.00
41250;BME280;26984;59.928;30.306;2022-10-28T11:34:16;101190.13;;;11.20;100.00
41250;BME280;26984;59.928;30.306;2022-10-28T11:36:49;101185.78;;;11.26;100.00
41250;BME280;26984;59.928;30.306;2022-10-28T11:39:21;101182.47;;;11.24;100.00
41250;BME280;26984;59.928;30.306;2022-10-28T11:41:57;101185.16;;;11.24;100.00
41250;BME280;26984;59.928;30.306;2022-10-28T11:44:32;101185.16;;;11.24;100.00
41250;BME280;26984;59.928;30.306;2022-10-28T11:47:08;101183.09;;;11.26;100.00
41250;BME280;26984;59.928;30.306;2022-10-28T11:52:34;101188.09;;;11.22;100.00
41250;BME280;26984;59.928;30.306;2022-10-28T11:55:13;101189.31;;;11.26;100.00
41250;BME280;26984;59.928;30.306;2022-10-28T11:57:45;101195.13;;;11.23;100.00
41250;BME280;26984;59.928;30.306;2022-10-28T12:00:31;101185.38;;;11.16;100.00
41250;BME280;26984;59.928;30.306;2022-10-28T12:05:50;101188.06;;;11.16;100.00
41250;BME280;26984;59.928;30.306;2022-10-28T12:08:29;101186.00;;;11.18;100.00
41250;BME280;26984;59.928;30.306;2022-10-28T12:11:09;101191.59;;;11.23;100.00
41250;BME280;26984;59.928;30.306;2022-10-28T12:13:39;101192.63;;;11.15;100.00
41250;BME280;26984;59.928;30.306;2022-10-28T12:16:11;101191.19;;;11.19;100.00
41250;BME280;26984;59.928;30.306;2022-10-28T12:18:43;101195.94;;;11.24;100.00
41250;BME280;26984;59.928;30.306;2022-10-28T12:21:15;101187.88;;;11.17;100.00
41250;BME280;26984;59.928;30.306;2022-10-28T12:23:45;101189.72;;;11.17;100.00
41250;BME280;26984;59.928;30.306;2022-10-28T12:26:14;101188.91;;;11.16;100.00
41250;BME280;26984;59.928;30.306;2022-10-28T12:28:43;101190.75;;;11.02;100.00
41250;BME280;26984;59.928;30.306;2022-10-28T12:31:16;101188.50;;;10.99;100.00
41250;BME280;26984;59.928;30.306;2022-10-28T12:33:46;101180.81;;;10.96;100.00
41250;BME280;26984;59.928;30.306;2022-10-28T12:36:17;101186.38;;;10.95;100.00
41250;BME280;26984;59.928;30.306;2022-10-28T12:38:48;101186.59;;;10.93;100.00
41250;BME280;26984;59.928;30.306;2022-10-28T12:41:20;101181.00;;;10.95;100.00
41250;BME280;26984;59.928;30.306;2022-10-28T12:43:49;101192.00;;;10.93;100.00
41250;BME280;26984;59.928;30.306;2022-10-28T12:46:33;101195.31;;;10.95;100.00
41250;BME280;26984;59.928;30.306;2022-10-28T12:49:08;101193.22;;;10.91;100.00
41250;BME280;26984;59.928;30.306;2022-10-28T12:51:40;101187.84;;;10.91;100.00
41250;BME280;26984;59.928;30.306;2022-10-28T12:54:12;101189.09;;;10.95;100.00
41250;BME280;26984;59.928;30.306;2022-10-28T12:56:43;101200.09;;;10.93;100.00
41250;BME280;26984;59.928;30.306;2022-10-28T12:59:14;101202.38;;;10.96;100.00
41250;BME280;26984;59.928;30.306;2022-10-28T13:01:43;101200.50;;;10.97;100.00
41250;BME280;26984;59.928;30.306;2022-10-28T13:04:13;101196.75;;;10.91;100.00
41250;BME280;26984;59.928;30.306;2022-10-28T13:06:49;101201.72;;;10.88;100.00
41250;BME280;26984;59.928;30.306;2022-10-28T13:09:29;101191.78;;;10.82;100.00
41250;BME280;26984;59.928;30.306;2022-10-28T13:12:21;101200.69;;;10.82;100.00
41250;BME280;26984;59.928;30.306;2022-10-28T13:15:19;101197.34;;;10.80;100.00